Time;durP1;ratioP1;P1;durP2;ratioP2;P2;SDS_P1;SDS_P2;PMS_P1;PMS_P2;Temp;Humidity;BMP_temperature;BMP_pressure;BME280_temperature;BME280_humidity;BME280_pressure;Samples;Min_cycle;Max_cycle;Signal;HPM_P1;HPM_P2
2021/06/22 00:00:14;;;;;;;10.40;7.13;;;;;;;20.85;73.01;100228.13;5109160;28;20203;-71
2021/06/22 00:02:43;;;;;;;8.73;6.73;;;;;;;21.02;71.73;100232.38;5111240;28;20544;-71
2021/06/22 00:05:12;;;;;;;8.70;6.17;;;;;;;21.16;71.63;100236.22;5108296;28;20256;-71
2021/06/22 00:07:40;;;;;;;9.70;6.53;;;;;;;21.14;71.57;100220.00;5110452;28;20210;-71
2021/06/22 00:10:10;;;;;;;9.83;6.73;;;;;;;21.19;70.87;100209.38;5109743;28;20198;-71
2021/06/22 00:12:38;;;;;;;9.13;6.37;;;;;;;21.23;70.13;100202.53;5126721;27;20579;-71
2021/06/22 00:15:11;;;;;;;14.80;7.37;;;;;;;21.21;70.30;100181.88;5109045;28;20283;-71
2021/06/22 00:17:40;;;;;;;10.03;7.27;;;;;;;21.02;70.00;100161.38;5122778;27;20232;-72
2021/06/22 00:20:10;;;;;;;11.97;6.70;;;;;;;21.06;70.64;100170.91;5110044;27;20645;-72
2021/06/22 00:22:39;;;;;;;7.77;5.93;;;;;;;21.15;70.16;100171.69;5104987;27;20200;-72
2021/06/22 00:25:10;;;;;;;7.97;6.13;;;;;;;21.19;69.44;100178.47;5108627;28;20667;-71
2021/06/22 00:27:38;;;;;;;13.07;6.23;;;;;;;21.19;69.46;100168.41;5107449;27;20188;-71
2021/06/22 00:30:10;;;;;;;8.57;6.20;;;;;;;20.97;69.29;100145.56;5109606;28;20202;-72
2021/06/22 00:32:39;;;;;;;10.93;6.70;;;;;;;21.11;68.74;100157.53;5108480;27;20625;-71
2021/06/22 00:35:12;;;;;;;8.67;6.70;;;;;;;21.09;68.93;100156.88;5107126;28;20192;-71
2021/06/22 00:37:41;;;;;;;9.50;6.40;;;;;;;21.07;68.77;100146.13;5108705;28;20223;-71
2021/06/22 00:40:14;;;;;;;11.57;6.30;;;;;;;20.99;69.04;100129.84;5107837;27;20220;-72
2021/06/22 00:42:45;;;;;;;9.30;5.83;;;;;;;20.86;68.38;100106.97;5108076;28;20636;-71
2021/06/22 00:45:17;;;;;;;7.43;5.93;;;;;;;21.00;68.86;100141.63;5124030;27;20234;-71
2021/06/22 00:47:45;;;;;;;8.60;6.10;;;;;;;20.96;68.65;100134.84;5105840;28;20314;-71
2021/06/22 00:50:15;;;;;;;7.47;5.90;;;;;;;20.91;68.60;100129.94;5107762;28;20234;-73
2021/06/22 00:52:55;;;;;;;8.23;6.27;;;;;;;20.70;68.21;100105.22;5123916;27;20195;-71
2021/06/22 00:55:33;;;;;;;8.20;6.20;;;;;;;20.83;68.87;100130.03;5107198;28;20603;-71
2021/06/22 00:58:24;;;;;;;7.97;5.87;;;;;;;;;;5120959;27;20222;-71
2021/06/22 01:00:56;;;;;;;8.67;6.00;;;;;;;20.81;67.75;100136.69;5124938;27;20196;-71
2021/06/22 01:03:24;;;;;;;9.20;6.53;;;;;;;20.81;67.40;100133.94;5107063;28;20266;-71
2021/06/22 01:05:58;;;;;;;10.03;6.20;;;;;;;20.81;67.02;100136.69;5105606;28;20202;-71
2021/06/22 01:08:26;;;;;;;7.43;5.80;;;;;;;20.81;67.02;100142.13;5109068;27;20753;-71
2021/06/22 01:10:55;;;;;;;9.83;5.93;;;;;;;20.80;66.15;100141.28;5108730;28;20195;-72
2021/06/22 01:13:23;;;;;;;8.07;5.87;;;;;;;20.78;66.74;100159.72;5107955;28;20670;-72
2021/06/22 01:15:51;;;;;;;9.87;5.70;;;;;;;;;;5108389;28;20330;-72
2021/06/22 01:18:22;;;;;;;7.87;6.17;;;;;;;20.73;66.01;100164.91;5107623;28;20226;-72
2021/06/22 01:21:12;;;;;;;11.00;6.03;;;;;;;20.71;65.81;100178.72;5101058;28;20222;-72
2021/06/22 01:23:46;;;;;;;8.63;5.20;;;;;;;20.69;65.43;100182.69;5124862;27;20207;-71
2021/06/22 01:26:14;;;;;;;8.20;5.53;;;;;;;20.66;65.59;100183.03;5117067;27;20540;-72
2021/06/22 01:28:46;;;;;;;9.43;6.17;;;;;;;20.66;65.77;100181.16;5107210;28;20264;-72
2021/06/22 01:31:16;;;;;;;8.80;5.53;;;;;;;20.53;67.88;100194.59;5115567;27;20771;-72
2021/06/22 01:33:48;;;;;;;9.57;5.73;;;;;;;20.54;67.74;100207.19;5124111;27;20249;-72
2021/06/22 01:36:26;;;;;;;8.70;6.37;;;;;;;20.45;70.03;100192.75;5096142;28;20200;-72
2021/06/22 01:38:54;;;;;;;9.77;6.07;;;;;;;20.37;71.28;100202.84;5106177;28;20729;-71
2021/06/22 01:41:22;;;;;;;6.93;5.60;;;;;;;20.29;73.01;100198.28;5107682;28;20303;-72
2021/06/22 01:43:52;;;;;;;10.10;6.50;;;;;;;20.28;73.15;100206.66;5123232;27;20586;-71
2021/06/22 01:46:21;;;;;;;7.40;5.90;;;;;;;20.26;71.92;100189.63;5100103;28;20668;-72
2021/06/22 01:48:50;;;;;;;11.80;6.13;;;;;;;20.37;73.82;100205.56;5103529;28;20678;-72
2021/06/22 01:51:19;;;;;;;6.90;5.60;;;;;;;20.36;72.58;100212.06;5107231;27;20204;-71
2021/06/22 01:53:55;;;;;;;7.03;5.40;;;;;;;20.39;70.72;100220.72;5115395;27;20235;-72
2021/06/22 01:56:24;;;;;;;8.53;5.60;;;;;;;20.49;70.37;100225.97;5107581;28;20206;-71
2021/06/22 01:58:54;;;;;;;8.83;5.50;;;;;;;20.51;70.15;100234.84;5108592;28;20569;-72
2021/06/22 02:01:45;;;;;;;9.03;5.90;;;;;;;20.49;70.72;100228.69;5091890;28;20209;-72
2021/06/22 02:04:27;;;;;;;7.50;5.30;;;;;;;20.44;71.75;100225.66;5124048;27;20566;-71
2021/06/22 02:07:00;;;;;;;10.23;6.27;;;;;;;20.38;72.32;100227.22;5107625;28;20200;-71
2021/06/22 02:09:52;;;;;;;7.17;5.50;;;;;;;20.39;71.50;100222.59;5107802;28;20200;-71
2021/06/22 02:12:27;;;;;;;8.20;5.37;;;;;;;20.22;72.77;100207.38;5104716;28;20204;-71
2021/06/22 02:14:56;;;;;;;6.13;5.40;;;;;;;20.38;72.67;100223.63;5107423;28;20282;-71
2021/06/22 02:17:24;;;;;;;9.03;5.40;;;;;;;20.41;71.75;100231.47;5101121;27;20244;-71
2021/06/22 02:19:52;;;;;;;9.57;5.60;;;;;;;20.45;71.19;100230.09;5103355;28;20222;-72
2021/06/22 02:22:33;;;;;;;8.00;5.47;;;;;;;20.35;71.10;100216.66;5098177;28;20199;-71
2021/06/22 02:25:05;;;;;;;9.60;6.03;;;;;;;20.51;70.23;100234.84;5111930;28;20209;-71
2021/06/22 02:27:35;;;;;;;7.67;6.00;;;;;;;20.45;70.30;100224.63;5102414;28;20204;-72
2021/06/22 02:30:04;;;;;;;6.73;5.47;;;;;;;20.65;70.56;100268.69;5105824;28;20939;-71
2021/06/22 02:32:39;;;;;;;11.47;5.60;;;;;;;20.65;72.00;100272.25;5107110;28;20195;-71
2021/06/22 02:35:14;;;;;;;7.90;6.23;;;;;;;20.76;72.26;100293.66;5104512;28;20204;-72
2021/06/22 02:37:44;;;;;;;7.00;5.53;;;;;;;20.94;72.53;100281.59;5106541;28;20945;-71
2021/06/22 02:40:14;;;;;;;7.93;5.70;;;;;;;21.18;nan;100277.84;5107276;28;20220;-71
2021/06/22 02:42:47;;;;;;;8.70;5.83;;;;;;;21.36;72.52;100278.38;5098674;28;20204;-72
2021/06/22 02:45:18;;;;;;;11.07;6.10;;;;;;;21.57;72.26;100283.13;5106100;28;20257;-71
2021/06/22 02:47:48;;;;;;;9.40;5.87;;;;;;;21.82;71.45;100280.97;5122077;28;20187;-71
2021/06/22 02:50:20;;;;;;;11.10;5.97;;;;;;;22.11;71.16;100277.41;5106133;28;20282;-71
2021/06/22 02:52:48;;;;;;;7.07;5.30;;;;;;;22.36;70.64;100276.06;5120895;28;20191;-71
2021/06/22 02:55:21;;;;;;;11.07;5.73;;;;;;;22.54;69.47;100273.75;5107249;28;20643;-72
2021/06/22 02:58:05;;;;;;;9.50;5.57;;;;;;;22.64;69.65;100278.91;5104793;28;20207;-72
2021/06/22 03:00:34;;;;;;;9.00;6.03;;;;;;;22.63;69.44;100253.41;5108715;28;20223;-72
2021/06/22 03:03:08;;;;;;;8.37;6.03;;;;;;;22.86;69.17;100266.09;5110273;28;20202;-71
2021/06/22 03:05:42;;;;;;;8.83;6.03;;;;;;;22.95;68.51;100270.41;5105622;27;20270;-72
2021/06/22 03:08:14;;;;;;;8.77;5.80;;;;;;;22.98;68.50;100264.56;5105224;28;20220;-72
2021/06/22 03:10:44;;;;;;;8.67;5.60;;;;;;;22.92;68.50;100249.72;5110059;28;20268;-72
2021/06/22 03:13:12;;;;;;;6.83;5.70;;;;;;;22.93;68.16;100245.09;5110909;28;20235;-72
2021/06/22 03:15:42;;;;;;;11.80;5.87;;;;;;;22.95;69.16;100250.38;5107936;27;20226;-72
2021/06/22 03:18:10;;;;;;;14.13;5.47;;;;;;;23.01;68.70;100247.72;5109762;27;20727;-72
2021/06/22 03:20:44;;;;;;;7.63;5.53;;;;;;;22.95;68.40;100229.31;5109774;27;20555;-72
2021/06/22 03:23:15;;;;;;;13.10;5.13;;;;;;;23.00;68.62;100240.56;5107606;28;20204;-72
2021/06/22 03:25:45;;;;;;;11.07;6.00;;;;;;;22.84;68.58;100211.53;5127922;27;20208;-72
2021/06/22 03:28:14;;;;;;;8.53;5.73;;;;;;;22.92;68.94;100225.06;5111118;28;20802;-72
2021/06/22 03:30:46;;;;;;;8.23;5.40;;;;;;;22.83;69.05;100187.06;5111909;27;20204;-72
2021/06/22 03:33:14;;;;;;;8.37;5.97;;;;;;;23.18;69.08;100215.41;5110907;28;20188;-72
2021/06/22 03:35:42;;;;;;;9.13;6.20;;;;;;;23.30;68.73;100211.06;5110431;28;20717;-72
2021/06/22 03:38:10;;;;;;;8.43;5.37;;;;;;;23.45;68.76;100210.97;5105827;28;20289;-72
2021/06/22 03:40:39;;;;;;;10.07;5.50;;;;;;;23.54;67.89;100217.97;5105384;27;20851;-73
2021/06/22 03:43:08;;;;;;;8.73;5.70;;;;;;;23.62;66.41;100217.88;5109852;27;20244;-73
2021/06/22 03:45:45;;;;;;;8.03;5.40;;;;;;;23.62;66.13;100215.13;5103195;28;20196;-72
2021/06/22 03:48:13;;;;;;;8.50;6.07;;;;;;;23.42;67.00;100205.88;5108129;28;20200;-72
2021/06/22 03:50:42;;;;;;;6.57;5.40;;;;;;;23.45;66.48;100220.03;5109300;28;20295;-72
2021/06/22 03:53:10;;;;;;;8.83;6.07;;;;;;;23.33;66.98;100229.00;5103554;27;20277;-73
2021/06/22 03:55:39;;;;;;;7.13;5.93;;;;;;;23.30;67.25;100223.94;5108266;28;20667;-73
2021/06/22 03:58:16;;;;;;;7.33;6.03;;;;;;;22.97;67.66;100191.66;5108905;28;20203;-73
2021/06/22 04:00:49;;;;;;;11.53;6.30;;;;;;;23.12;67.31;100225.25;5110301;28;20246;-72
2021/06/22 04:03:21;;;;;;;7.20;5.60;;;;;;;23.09;67.15;100219.34;5108659;28;20411;-73
2021/06/22 04:06:00;;;;;;;6.90;5.67;;;;;;;22.95;66.95;100187.38;5114244;27;20294;-73
2021/06/22 04:08:31;;;;;;;7.40;5.37;;;;;;;23.07;67.15;100205.84;5108458;28;20199;-72
2021/06/22 04:11:03;;;;;;;9.53;5.93;;;;;;;23.07;67.19;100203.09;5109790;27;20305;-72
2021/06/22 04:13:35;;;;;;;7.10;5.93;;;;;;;22.88;67.75;100198.28;5097005;28;20208;-71
2021/06/22 04:16:07;;;;;;;7.53;6.00;;;;;;;22.84;67.29;100202.47;5107192;28;20231;-71
2021/06/22 04:18:37;;;;;;;8.90;5.67;;;;;;;22.93;66.41;100198.53;5124101;27;20207;-70
2021/06/22 04:21:10;;;;;;;8.27;5.57;;;;;;;22.88;66.94;100195.53;5124105;27;20230;-72
2021/06/22 04:24:04;;;;;;;8.80;6.00;;;;;;;22.89;66.69;100192.59;5103911;28;20220;-71
2021/06/22 04:26:33;;;;;;;7.03;5.63;;;;;;;22.77;66.69;100176.88;5107525;28;20281;-71
2021/06/22 04:29:04;;;;;;;7.67;6.30;;;;;;;22.77;66.71;100190.56;5109833;28;20651;-69
2021/06/22 04:31:32;;;;;;;10.63;6.10;;;;;;;22.79;67.31;100205.75;5109215;28;20200;-68
2021/06/22 04:34:00;;;;;;;7.30;6.17;;;;;;;22.75;67.87;100220.06;5111680;28;20600;-75
2021/06/22 04:36:28;;;;;;;8.73;6.07;;;;;;;22.73;67.39;100220.25;5109724;28;20204;-74
2021/06/22 04:38:56;;;;;;;10.00;6.37;;;;;;;22.66;67.86;100229.44;5101987;28;20200;-74
2021/06/22 04:41:24;;;;;;;13.53;6.70;;;;;;;22.55;68.04;100204.25;5109095;28;20566;-73
2021/06/22 04:43:52;;;;;;;12.83;6.20;;;;;;;22.80;66.68;100239.47;5109348;28;20195;-73
2021/06/22 04:46:22;;;;;;;9.57;6.50;;;;;;;22.70;65.56;100212.44;5109450;28;20200;-73
2021/06/22 04:48:50;;;;;;;10.03;6.13;;;;;;;22.85;65.41;100245.25;5105788;28;20706;-73
2021/06/22 04:51:18;;;;;;;11.17;6.20;;;;;;;22.83;66.36;100244.59;5107962;28;20199;-73
2021/06/22 04:53:46;;;;;;;10.73;6.20;;;;;;;22.82;66.40;100245.63;5106927;28;20594;-73
2021/06/22 04:56:14;;;;;;;9.50;7.10;;;;;;;22.52;67.97;100218.34;5108288;28;20616;-73
2021/06/22 04:58:44;;;;;;;9.43;6.83;;;;;;;22.66;68.34;100234.94;5106151;28;20193;-73
2021/06/22 05:01:12;;;;;;;12.13;7.23;;;;;;;22.65;68.96;100252.38;5110025;28;20259;-74
2021/06/22 05:03:42;;;;;;;11.77;7.70;;;;;;;22.66;69.22;100251.34;5108553;28;20243;-74
2021/06/22 05:06:11;;;;;;;12.23;6.57;;;;;;;22.61;69.75;100251.91;5109487;28;20214;-73
2021/06/22 05:08:41;;;;;;;10.17;7.47;;;;;;;22.55;69.38;100237.09;5106845;28;20690;-74
2021/06/22 05:11:09;;;;;;;11.37;7.80;;;;;;;22.74;68.85;100256.69;5101768;28;20184;-73
2021/06/22 05:13:37;;;;;;;15.43;7.60;;;;;;;22.68;68.57;100250.13;5109875;27;20199;-73
2021/06/22 05:16:06;;;;;;;10.63;7.57;;;;;;;22.62;68.33;100262.66;5109617;28;20714;-74
2021/06/22 05:18:34;;;;;;;13.47;7.90;;;;;;;22.76;68.40;100282.00;5108539;28;20245;-73
2021/06/22 05:21:04;;;;;;;13.10;8.00;;;;;;;22.58;69.03;100266.84;5109905;28;20224;-73
2021/06/22 05:23:32;;;;;;;12.37;8.03;;;;;;;22.73;68.66;100277.75;5109381;28;20203;-74
2021/06/22 05:26:00;;;;;;;13.10;8.90;;;;;;;22.76;68.39;100285.56;5108713;28;20694;-73
2021/06/22 05:28:29;;;;;;;14.87;8.40;;;;;;;22.83;68.07;100302.94;5108158;28;20220;-74
2021/06/22 05:30:57;;;;;;;12.50;8.27;;;;;;;22.80;68.06;100311.53;5107935;28;20269;-74
2021/06/22 05:33:25;;;;;;;15.80;8.53;;;;;;;22.68;70.23;100302.13;5107654;28;20204;-72
2021/06/22 05:35:53;;;;;;;12.23;8.90;;;;;;;22.68;69.88;100290.34;5108992;28;20297;-72
2021/06/22 05:38:23;;;;;;;10.20;7.63;;;;;;;22.73;69.76;100305.13;5107346;27;20667;-72
2021/06/22 05:40:51;;;;;;;13.93;8.80;;;;;;;22.67;70.24;100310.53;5107892;28;20220;-72
2021/06/22 05:43:19;;;;;;;13.13;7.93;;;;;;;22.69;69.04;100302.97;5106236;28;20199;-72
2021/06/22 05:45:47;;;;;;;13.27;8.53;;;;;;;22.70;68.80;100310.16;5095368;28;20200;-73
2021/06/22 05:48:15;;;;;;;16.07;8.93;;;;;;;22.67;69.34;100305.91;5104690;28;20872;-72
2021/06/22 05:50:43;;;;;;;16.40;9.00;;;;;;;22.62;70.81;100316.56;5101571;28;20196;-72
2021/06/22 05:53:11;;;;;;;15.73;9.30;;;;;;;22.61;70.89;100323.09;5100326;28;20200;-72
2021/06/22 05:55:41;;;;;;;14.90;8.50;;;;;;;22.57;72.10;100327.25;5107965;28;20192;-73
2021/06/22 05:58:09;;;;;;;16.87;8.57;;;;;;;22.59;70.66;100325.16;5107285;28;20608;-73
2021/06/22 06:00:37;;;;;;;15.10;8.77;;;;;;;22.59;70.84;100326.00;5100302;28;20228;-73
2021/06/22 06:03:06;;;;;;;13.33;9.03;;;;;;;22.72;68.23;100332.72;5100233;28;20249;-73
2021/06/22 06:05:34;;;;;;;11.90;8.07;;;;;;;22.66;70.11;100330.75;5108000;28;20813;-73
2021/06/22 06:08:03;;;;;;;14.87;8.27;;;;;;;22.84;67.39;100323.81;5108551;28;20489;-73
2021/06/22 06:10:32;;;;;;;11.30;7.53;;;;;;;22.93;67.28;100316.31;5107639;28;20192;-73
2021/06/22 06:13:01;;;;;;;18.17;8.07;;;;;;;23.06;67.72;100332.06;5106929;28;20203;-73
2021/06/22 06:15:29;;;;;;;11.43;7.77;;;;;;;23.09;68.44;100327.03;5107820;28;20196;-72
2021/06/22 06:17:58;;;;;;;13.90;7.50;;;;;;;23.00;67.47;100300.81;5089292;28;20204;-73
2021/06/22 06:20:27;;;;;;;12.07;7.40;;;;;;;23.23;65.97;100333.47;5096733;28;20726;-73
2021/06/22 06:22:57;;;;;;;10.53;7.23;;;;;;;23.30;66.92;100336.31;5107089;28;20200;-73
2021/06/22 06:25:25;;;;;;;10.83;6.87;;;;;;;23.50;64.10;100356.50;5108406;28;20207;-72
2021/06/22 06:27:56;;;;;;;11.07;7.30;;;;;;;23.58;64.82;100364.63;5094127;28;20232;-72
2021/06/22 06:30:29;;;;;;;9.63;6.60;;;;;;;23.64;64.43;100358.34;5098888;27;20646;-73
2021/06/22 06:32:58;;;;;;;10.63;6.80;;;;;;;23.76;63.69;100356.75;5114627;28;20202;-72
2021/06/22 06:35:26;;;;;;;12.10;6.90;;;;;;;23.85;62.98;100363.78;5115005;27;20203;-72
2021/06/22 06:37:55;;;;;;;12.20;6.90;;;;;;;23.68;65.22;100356.91;5103849;27;20525;-73
2021/06/22 06:40:24;;;;;;;8.60;6.20;;;;;;;23.80;65.07;100369.03;5112937;28;20674;-73
2021/06/22 06:42:52;;;;;;;12.20;7.00;;;;;;;23.80;67.68;100390.97;5114882;28;20199;-73
2021/06/22 06:45:20;;;;;;;10.27;6.17;;;;;;;23.78;66.06;100387.56;5096877;27;20282;-73
2021/06/22 06:47:51;;;;;;;9.90;6.70;;;;;;;23.75;67.66;100393.47;5111146;27;20285;-73
2021/06/22 06:50:19;;;;;;;8.03;5.87;;;;;;;23.58;68.24;100388.47;5114080;27;20217;-73
2021/06/22 06:52:48;;;;;;;10.47;6.07;;;;;;;23.77;67.49;100383.13;5113933;27;20663;-72
2021/06/22 06:55:28;;;;;;;11.23;6.30;;;;;;;23.92;65.88;100379.47;5113982;27;20196;-73
2021/06/22 06:57:59;;;;;;;10.10;6.70;;;;;;;24.04;66.20;100380.59;5114537;28;20206;-73
2021/06/22 07:00:29;;;;;;;10.37;6.90;;;;;;;24.10;66.51;100390.75;5112313;28;20203;-73
2021/06/22 07:02:59;;;;;;;10.50;6.73;;;;;;;24.06;67.13;100389.47;5109224;27;20564;-73
2021/06/22 07:05:28;;;;;;;12.97;6.80;;;;;;;24.15;66.14;100394.59;5106157;28;20204;-73
2021/06/22 07:07:57;;;;;;;12.30;6.87;;;;;;;24.15;66.56;100393.75;5107891;27;20196;-73
2021/06/22 07:10:25;;;;;;;10.73;6.27;;;;;;;24.32;64.15;100391.56;5111020;28;20211;-73
2021/06/22 07:12:55;;;;;;;9.27;6.27;;;;;;;24.21;64.02;100345.47;5128115;27;20652;-73
2021/06/22 07:15:23;;;;;;;9.33;6.20;;;;;;;24.58;63.02;100393.63;5112627;28;20196;-73
2021/06/22 07:17:52;;;;;;;8.63;5.97;;;;;;;24.69;60.94;100406.78;5113777;28;20732;-73
2021/06/22 07:20:22;;;;;;;10.00;6.70;;;;;;;24.75;62.92;100412.28;5114842;28;20219;-73
2021/06/22 07:22:50;;;;;;;10.47;6.87;;;;;;;24.92;59.65;100411.94;5113996;27;20215;-73
2021/06/22 07:25:20;;;;;;;10.63;6.60;;;;;;;24.84;61.40;100398.41;5093567;28;20203;-74
2021/06/22 07:27:49;;;;;;;12.87;7.00;;;;;;;24.78;61.40;100400.88;5107490;28;20620;-74
2021/06/22 07:30:18;;;;;;;10.30;6.30;;;;;;;24.68;62.54;100399.59;5113842;27;20741;-73
2021/06/22 07:32:46;;;;;;;9.17;6.60;;;;;;;24.50;64.00;100408.38;5113751;27;20188;-73
2021/06/22 07:35:14;;;;;;;11.23;6.13;;;;;;;24.31;64.70;100426.41;5113886;27;20214;-73
2021/06/22 07:37:44;;;;;;;11.53;6.43;;;;;;;24.17;65.20;100424.59;5114531;28;20192;-74
2021/06/22 07:40:14;;;;;;;11.47;5.90;;;;;;;24.32;62.77;100441.00;5110945;27;20209;-74
2021/06/22 07:42:42;;;;;;;11.70;6.27;;;;;;;24.23;63.29;100434.78;5101059;28;20203;-71
2021/06/22 07:45:12;;;;;;;10.57;6.17;;;;;;;24.10;64.04;100440.16;5113672;28;20192;-71
2021/06/22 07:47:40;;;;;;;9.40;5.67;;;;;;;23.78;63.75;100386.72;5114112;28;20184;-70
2021/06/22 07:50:10;;;;;;;13.17;6.13;;;;;;;24.20;63.67;100434.34;5101147;28;20197;-71
2021/06/22 07:52:38;;;;;;;9.70;5.80;;;;;;;24.20;64.57;100432.44;5102924;28;20203;-72
2021/06/22 07:55:13;;;;;;;7.87;5.13;;;;;;;24.34;63.15;100431.50;5113556;28;20200;-73
2021/06/22 07:57:44;;;;;;;12.63;5.87;;;;;;;24.32;64.75;100430.00;5105981;28;20218;-73
2021/06/22 08:00:23;;;;;;;10.57;5.40;;;;;;;24.23;64.59;100422.97;5097492;28;20241;-73
2021/06/22 08:02:55;;;;;;;8.60;5.73;;;;;;;24.39;62.87;100420.75;5109764;28;20218;-73
2021/06/22 08:05:24;;;;;;;10.80;5.80;;;;;;;24.45;63.19;100419.09;5113624;28;20251;-71
2021/06/22 08:07:53;;;;;;;8.77;5.43;;;;;;;24.71;60.49;100416.50;5116037;28;20280;-71
2021/06/22 08:10:22;;;;;;;9.07;5.70;;;;;;;24.90;58.43;100417.66;5107998;28;20211;-73
2021/06/22 08:12:50;;;;;;;10.73;6.23;;;;;;;24.93;60.85;100419.13;5107208;28;20189;-70
2021/06/22 08:15:18;;;;;;;10.40;6.17;;;;;;;24.98;60.86;100423.00;5114325;28;20199;-71
2021/06/22 08:17:48;;;;;;;8.93;5.60;;;;;;;25.05;59.88;100429.34;5107952;28;20326;-72
2021/06/22 08:20:16;;;;;;;8.07;5.70;;;;;;;25.19;58.79;100443.16;5111862;28;20196;-74
2021/06/22 08:22:51;;;;;;;10.00;5.40;;;;;;;25.20;59.70;100453.09;5107134;28;20293;-73
2021/06/22 08:25:20;;;;;;;12.70;5.93;;;;;;;24.91;62.46;100445.97;5106809;28;20207;-73
2021/06/22 08:27:51;;;;;;;8.40;5.80;;;;;;;25.07;59.79;100449.22;5108913;28;20207;-71
2021/06/22 08:30:21;;;;;;;12.57;6.20;;;;;;;24.94;60.82;100448.31;5123503;27;20212;-73
2021/06/22 08:32:50;;;;;;;9.23;5.73;;;;;;;24.93;61.58;100450.22;5108583;28;20203;-73
2021/06/22 08:35:18;;;;;;;10.73;5.50;;;;;;;24.93;61.29;100458.44;5108853;28;20670;-73
2021/06/22 08:37:47;;;;;;;9.83;6.07;;;;;;;24.94;61.92;100449.16;5103998;28;20671;-74
2021/06/22 08:40:16;;;;;;;11.30;5.97;;;;;;;24.72;62.65;100422.84;5108875;28;20687;-73
2021/06/22 08:42:44;;;;;;;9.83;6.10;;;;;;;24.95;61.76;100447.25;5108964;28;20214;-73
2021/06/22 08:45:16;;;;;;;9.13;5.73;;;;;;;24.72;63.18;100439.31;5108275;28;20199;-74
2021/06/22 08:47:45;;;;;;;9.03;5.70;;;;;;;24.89;62.68;100454.41;5107940;28;20740;-73
2021/06/22 08:50:15;;;;;;;10.07;5.83;;;;;;;25.06;60.55;100466.78;5108347;28;20196;-74
2021/06/22 08:52:47;;;;;;;8.23;5.70;;;;;;;25.07;61.89;100479.47;5105872;28;20196;-74
2021/06/22 08:55:29;;;;;;;9.63;6.07;;;;;;;25.08;62.07;100489.41;5106611;28;20515;-73
2021/06/22 08:58:00;;;;;;;10.87;5.93;;;;;;;25.18;60.85;100482.69;5106857;28;20631;-73
2021/06/22 09:00:31;;;;;;;9.23;5.37;;;;;;;25.02;61.84;100484.72;5105929;28;20545;-74
2021/06/22 09:03:03;;;;;;;9.20;5.90;;;;;;;24.95;61.21;100481.06;5123830;27;20702;-73
2021/06/22 09:05:32;;;;;;;10.40;5.30;;;;;;;24.91;62.53;100498.19;5103474;28;20189;-74
2021/06/22 09:08:00;;;;;;;8.77;5.53;;;;;;;24.84;63.31;100491.81;5107736;28;20548;-73
2021/06/22 09:10:31;;;;;;;7.97;5.30;;;;;;;24.95;62.51;100500.31;5106113;28;20204;-73
2021/06/22 09:13:10;;;;;;;7.73;5.20;;;;;;;24.93;62.23;100488.69;5105817;28;20215;-73
2021/06/22 09:15:42;;;;;;;6.43;4.67;;;;;;;25.06;61.01;100496.16;5107665;28;20572;-73
2021/06/22 09:18:27;;;;;;;9.93;5.33;;;;;;;25.07;60.71;100481.38;5104868;28;20203;-73
2021/06/22 09:20:56;;;;;;;7.60;4.47;;;;;;;25.24;59.90;100492.88;5104947;28;20192;-74
2021/06/22 09:23:26;;;;;;;6.57;4.93;;;;;;;25.14;60.67;100473.16;5105878;28;20208;-73
2021/06/22 09:25:56;;;;;;;7.80;4.80;;;;;;;25.06;60.48;100453.03;5105994;28;20682;-73
2021/06/22 09:28:27;;;;;;;5.63;4.70;;;;;;;25.50;59.70;100492.09;5108055;28;20259;-74
2021/06/22 09:30:59;;;;;;;7.70;4.90;;;;;;;25.68;59.10;100495.13;5108441;28;21080;-73
2021/06/22 09:33:34;;;;;;;9.52;4.60;;;;;;;25.59;59.71;100499.09;5106403;28;20195;-73
2021/06/22 09:36:09;;;;;;;7.65;4.80;;;;;;;25.69;59.18;100502.31;5106827;28;20191;-73
2021/06/22 09:38:39;;;;;;;7.00;4.93;;;;;;;25.44;60.44;100504.78;5105499;28;20200;-72
2021/06/22 09:41:23;;;;;;;7.50;4.88;;;;;;;25.38;60.17;100506.44;5106913;28;20214;-73
2021/06/22 09:43:54;;;;;;;8.25;4.60;;;;;;;25.46;60.20;100510.09;5119616;27;20226;-73
2021/06/22 09:46:38;;;;;;;6.75;4.93;;;;;;;25.64;59.60;100522.19;5106367;27;20192;-73
2021/06/22 09:49:08;;;;;;;7.13;5.00;;;;;;;25.64;59.27;100511.19;5106108;28;20202;-74
2021/06/22 09:51:39;;;;;;;6.40;4.93;;;;;;;25.57;59.46;100487.47;5104125;28;20772;-74
2021/06/22 09:54:13;;;;;;;6.40;4.67;;;;;;;25.72;59.34;100506.59;5101718;28;20196;-73
2021/06/22 09:56:52;;;;;;;10.90;4.50;;;;;;;25.90;58.29;100515.06;5100681;28;20607;-74
2021/06/22 09:59:20;;;;;;;8.10;4.80;;;;;;;26.10;57.11;100521.47;5102016;28;20195;-73
2021/06/22 10:01:52;;;;;;;6.22;4.95;;;;;;;25.87;57.59;100490.72;5104545;28;20203;-73
2021/06/22 10:04:23;;;;;;;5.20;4.30;;;;;;;26.09;58.53;100522.50;5106343;28;20691;-74
2021/06/22 10:06:55;;;;;;;11.00;4.85;;;;;;;25.98;58.94;100528.63;5103585;28;20215;-74
2021/06/22 10:09:28;;;;;;;5.57;4.20;;;;;;;26.20;57.97;100521.88;5107373;28;20200;-73
2021/06/22 10:12:15;;;;;;;5.97;4.70;;;;;;;26.38;56.95;100528.69;5102798;28;20192;-74
2021/06/22 10:14:45;;;;;;;5.60;4.38;;;;;;;26.39;56.12;100497.34;5107922;28;20296;-73
2021/06/22 10:17:18;;;;;;;7.00;3.92;;;;;;;26.50;55.57;100522.31;5106870;28;20224;-72
2021/06/22 10:19:47;;;;;;;5.90;4.43;;;;;;;26.46;56.78;100532.06;5105768;28;20219;-74
2021/06/22 10:22:17;;;;;;;6.65;4.57;;;;;;;26.82;55.39;100526.09;5106691;28;20265;-74
2021/06/22 10:24:47;;;;;;;5.32;4.07;;;;;;;27.17;53.77;100534.06;5103729;28;20207;-74
2021/06/22 10:27:16;;;;;;;6.22;4.40;;;;;;;27.36;53.48;100541.44;5106841;28;20542;-75
2021/06/22 10:29:46;;;;;;;6.78;4.32;;;;;;;27.36;54.64;100529.56;5104121;28;21431;-73
2021/06/22 10:32:16;;;;;;;5.47;4.13;;;;;;;27.35;54.61;100538.88;5105008;28;20218;-73
2021/06/22 10:34:48;;;;;;;8.40;4.50;;;;;;;27.80;52.54;100542.50;5106189;28;20219;-73
2021/06/22 10:37:22;;;;;;;6.40;4.20;;;;;;;27.38;53.75;100508.09;5105225;28;20214;-73
2021/06/22 10:39:54;;;;;;;6.97;4.43;;;;;;;27.51;54.05;100541.97;5098199;28;20573;-73
2021/06/22 10:42:23;;;;;;;7.13;4.55;;;;;;;27.76;52.96;100544.00;5092715;28;20212;-74
2021/06/22 10:44:52;;;;;;;5.85;4.57;;;;;;;27.95;51.86;100554.09;5105497;28;20200;-73
2021/06/22 10:47:25;;;;;;;6.15;4.53;;;;;;;27.95;52.39;100556.00;5105118;28;20199;-74
2021/06/22 10:50:01;;;;;;;4.70;3.97;;;;;;;27.72;52.77;100554.66;5105568;28;20196;-73
2021/06/22 10:53:04;;;;;;;5.32;4.00;;;;;;;27.91;53.22;100552.00;5107306;28;20612;-74
2021/06/22 10:56:01;;;;;;;5.35;4.00;;;;;;;27.98;52.46;100553.66;5106537;28;20252;-74
2021/06/22 10:58:30;;;;;;;7.50;4.55;;;;;;;27.90;52.16;100562.22;5079294;28;20331;-74
2021/06/22 11:01:18;;;;;;;5.00;3.80;;;;;;;28.10;52.09;100565.66;5097256;28;20358;-73
2021/06/22 11:04:05;;;;;;;5.05;4.40;;;;;;;27.99;51.93;100526.88;5103569;28;20216;-73
2021/06/22 11:06:33;;;;;;;6.05;4.32;;;;;;;28.28;52.88;100561.34;5105391;28;20241;-74
2021/06/22 11:09:20;;;;;;;5.70;4.22;;;;;;;28.40;50.96;100559.53;5105179;28;20203;-73
2021/06/22 11:11:48;;;;;;;5.05;4.10;;;;;;;28.01;51.96;100558.72;5103382;28;20694;-74
2021/06/22 11:14:17;;;;;;;4.78;3.78;;;;;;;28.18;51.92;100569.25;5106802;28;20847;-73
2021/06/22 11:16:45;;;;;;;5.20;4.10;;;;;;;27.98;52.42;100548.13;5103179;28;20735;-74
2021/06/22 11:19:15;;;;;;;7.72;4.32;;;;;;;28.15;51.64;100562.22;5110295;28;20261;-74
2021/06/22 11:21:53;;;;;;;3.97;3.58;;;;;;;28.08;51.59;100570.56;5109915;28;20200;-74
2021/06/22 11:24:27;;;;;;;4.95;3.80;;;;;;;27.70;52.53;100520.91;5109954;28;20220;-74
2021/06/22 11:27:11;;;;;;;3.42;3.13;;;;;;;28.18;51.98;100572.00;5108803;28;20199;-74
2021/06/22 11:29:47;;;;;;;3.80;3.10;;;;;;;28.40;51.69;100578.88;5109405;28;20196;-74
2021/06/22 11:32:34;;;;;;;3.95;3.20;;;;;;;28.38;51.79;100578.25;5109833;28;20203;-74
2021/06/22 11:35:09;;;;;;;3.83;3.20;;;;;;;28.63;50.80;100579.09;5109353;28;20279;-73
2021/06/22 11:37:37;;;;;;;4.28;3.28;;;;;;;28.48;51.12;100586.06;5109775;28;20215;-74
2021/06/22 11:40:08;;;;;;;4.03;3.40;;;;;;;28.41;51.63;100575.03;5109323;28;20581;-74
2021/06/22 11:42:38;;;;;;;3.67;3.20;;;;;;;28.67;50.91;100585.00;5107297;28;20207;-75